createdAt,value
2022-08-17T00:01:00.372Z,23
2022-08-17T00:02:27.822Z,23
2022-08-17T00:03:44.918Z,23
2022-08-17T00:04:51.432Z,23
2022-08-17T00:05:54.001Z,23
2022-08-17T00:06:56.576Z,23
2022-08-17T00:07:59.521Z,23
2022-08-17T00:09:01.810Z,23
2022-08-17T00:10:04.231Z,23
2022-08-17T00:11:07.418Z,23
2022-08-17T00:12:45.403Z,23
2022-08-17T00:13:49.283Z,22.9
2022-08-17T00:14:52.307Z,22.9
2022-08-17T00:15:55.030Z,22.9
2022-08-17T00:16:58.764Z,22.9
2022-08-17T00:18:01.392Z,22.9
2022-08-17T00:19:09.169Z,22.9
2022-08-17T00:20:12.630Z,22.9
2022-08-17T00:21:25.694Z,22.9
2022-08-17T00:23:50.462Z,22.8
2022-08-17T00:24:53.027Z,22.9
2022-08-17T00:25:55.661Z,22.9
2022-08-17T00:26:58.495Z,22.8
2022-08-17T00:28:01.396Z,22.8
2022-08-17T00:29:03.798Z,22.8
2022-08-17T00:30:06.386Z,22.8
2022-08-17T00:31:09.077Z,22.8
2022-08-17T00:33:17.666Z,22.8
2022-08-17T00:34:20.782Z,22.8
2022-08-17T00:35:23.415Z,22.8
2022-08-17T00:36:25.835Z,22.8
2022-08-17T00:37:28.464Z,22.8
2022-08-17T00:38:31.307Z,22.8
2022-08-17T00:39:34.664Z,22.8
2022-08-17T00:40:45.753Z,22.8
2022-08-17T00:41:50.383Z,22.7
2022-08-17T00:42:53.155Z,22.7
2022-08-17T00:43:56.247Z,22.7
2022-08-17T00:44:58.548Z,22.7
2022-08-17T00:46:01.741Z,22.7
2022-08-17T00:47:04.363Z,22.7
2022-08-17T00:48:31.014Z,22.7
2022-08-17T00:49:33.887Z,22.7
2022-08-17T00:50:36.806Z,22.7
2022-08-17T00:51:39.663Z,22.6
2022-08-17T00:52:43.002Z,22.6
2022-08-17T00:53:45.725Z,22.6
2022-08-17T00:54:48.849Z,22.6
2022-08-17T00:55:51.745Z,22.6
2022-08-17T00:56:57.036Z,22.6
2022-08-17T00:58:00.518Z,22.6
2022-08-17T00:59:02.927Z,22.6
2022-08-17T01:00:05.830Z,22.6
2022-08-17T01:01:09.281Z,22.6
2022-08-17T01:02:12.530Z,22.6
2022-08-17T01:03:15.133Z,22.6
2022-08-17T01:04:17.741Z,22.6
2022-08-17T01:05:21.337Z,22.6
2022-08-17T01:06:24.559Z,22.6
2022-08-17T01:07:28.051Z,22.6
2022-08-17T01:08:30.383Z,22.6
2022-08-17T01:09:32.791Z,22.6
2022-08-17T01:11:02.573Z,22.6
2022-08-17T01:12:04.540Z,22.6
2022-08-17T01:13:07.429Z,22.6
2022-08-17T01:14:10.352Z,22.6
2022-08-17T01:15:13.197Z,22.6
2022-08-17T01:16:16.225Z,22.6
2022-08-17T01:17:19.104Z,22.5
2022-08-17T01:18:21.765Z,22.5
2022-08-17T01:19:24.679Z,22.5
2022-08-17T01:20:27.120Z,22.5
2022-08-17T01:21:30.589Z,22.5
2022-08-17T01:22:33.511Z,22.5
2022-08-17T01:23:36.423Z,22.5
2022-08-17T01:24:38.778Z,22.5
2022-08-17T01:25:40.850Z,22.5
2022-08-17T01:26:43.697Z,22.5
2022-08-17T01:27:46.633Z,22.5
2022-08-17T01:28:56.220Z,22.4
2022-08-17T01:29:59.400Z,22.4
2022-08-17T01:31:02.307Z,22.4
2022-08-17T01:32:05.475Z,22.4
2022-08-17T01:33:08.113Z,22.4
2022-08-17T01:34:10.754Z,22.4
2022-08-17T01:35:14.163Z,22.4
2022-08-17T01:36:16.629Z,22.4
2022-08-17T01:37:19.252Z,22.4
2022-08-17T01:38:28.235Z,22.4
2022-08-17T01:39:31.062Z,22.4
2022-08-17T01:40:33.884Z,22.4
2022-08-17T01:41:36.572Z,22.4
2022-08-17T01:42:39.197Z,22.4
2022-08-17T01:43:41.833Z,22.4
2022-08-17T01:44:44.730Z,22.4
2022-08-17T01:45:47.908Z,22.4
2022-08-17T01:47:06.736Z,22.4
2022-08-17T01:48:09.380Z,22.4
2022-08-17T01:49:12.570Z,22.3
2022-08-17T01:50:14.914Z,22.3
2022-08-17T01:51:17.777Z,22.3
2022-08-17T01:52:20.130Z,22.4
2022-08-17T01:53:22.707Z,22.3
2022-08-17T01:54:25.328Z,22.4
2022-08-17T01:55:28.229Z,22.3
2022-08-17T01:56:31.248Z,22.3
2022-08-17T01:57:33.879Z,22.3
2022-08-17T01:58:36.579Z,22.3
2022-08-17T01:59:39.420Z,22.3
2022-08-17T02:01:02.255Z,22.3
2022-08-17T02:02:05.224Z,22.3
2022-08-17T02:03:08.362Z,22.3
2022-08-17T02:04:11.212Z,22.2
2022-08-17T02:05:14.167Z,22.3
2022-08-17T02:06:28.977Z,22.3
2022-08-17T02:08:01.210Z,22.2
2022-08-17T02:09:26.342Z,22.2
2022-08-17T02:10:34.900Z,22.2
2022-08-17T02:11:50.654Z,22.2
2022-08-17T02:12:55.859Z,22.2
2022-08-17T02:14:04.781Z,22.2
2022-08-17T02:15:07.365Z,22.2
2022-08-17T02:16:10.284Z,22.2
2022-08-17T02:17:13.190Z,22.2
2022-08-17T02:18:15.832Z,22.2
2022-08-17T02:19:18.517Z,22.2
2022-08-17T02:20:43.485Z,22.2
2022-08-17T02:21:46.304Z,22.2
2022-08-17T02:22:50.382Z,22.1
2022-08-17T02:23:53.463Z,22.1
2022-08-17T02:25:02.920Z,22.1
2022-08-17T02:26:05.620Z,22.1
2022-08-17T02:27:08.476Z,22.1
2022-08-17T02:28:11.411Z,22.1
2022-08-17T02:29:14.119Z,22.1
2022-08-17T02:31:03.870Z,22.1
2022-08-17T02:32:06.432Z,22
2022-08-17T02:33:10.029Z,22.1
2022-08-17T02:34:12.189Z,22.1
2022-08-17T02:35:22.688Z,22.1
2022-08-17T02:36:28.482Z,22.1
2022-08-17T02:37:31.670Z,22.1
2022-08-17T02:38:33.530Z,22.1
2022-08-17T02:39:35.702Z,22.1
2022-08-17T02:40:38.830Z,22.1
2022-08-17T02:41:42.177Z,22.1
2022-08-17T02:42:45.374Z,22.1
2022-08-17T02:43:48.220Z,22.1
2022-08-17T02:44:51.391Z,22.1
2022-08-17T02:45:54.013Z,22.1
2022-08-17T02:46:57.170Z,22.1
2022-08-17T02:48:00.657Z,22
2022-08-17T02:49:03.309Z,22.1
2022-08-17T02:50:06.009Z,22
2022-08-17T02:51:08.358Z,22
2022-08-17T02:52:11.266Z,22
2022-08-17T02:53:13.865Z,22
2022-08-17T02:54:42.744Z,22
2022-08-17T02:55:45.315Z,22
2022-08-17T02:56:48.276Z,22
2022-08-17T02:57:50.840Z,22
2022-08-17T02:58:53.342Z,22
2022-08-17T02:59:55.968Z,22
2022-08-17T03:00:59.828Z,22
2022-08-17T03:02:03.037Z,22
2022-08-17T03:03:06.012Z,22
2022-08-17T03:04:08.639Z,22
2022-08-17T03:05:10.882Z,22
2022-08-17T03:06:13.724Z,22
2022-08-17T03:07:16.159Z,22
2022-08-17T03:08:18.801Z,22
2022-08-17T03:09:21.222Z,21.9
2022-08-17T03:10:23.586Z,21.9
2022-08-17T03:11:26.242Z,21.9
2022-08-17T03:12:29.099Z,21.9
2022-08-17T03:13:32.214Z,21.9
2022-08-17T03:14:42.046Z,21.9
2022-08-17T03:15:45.182Z,21.9
2022-08-17T03:16:48.397Z,21.9
2022-08-17T03:17:51.024Z,21.9
2022-08-17T03:18:54.210Z,21.9
2022-08-17T03:19:57.188Z,21.9
2022-08-17T03:20:59.556Z,21.9
2022-08-17T03:22:39.088Z,21.9
2022-08-17T03:23:55.303Z,21.8
2022-08-17T03:24:57.805Z,21.8
2022-08-17T03:26:02.613Z,21.9
2022-08-17T03:27:17.985Z,21.8
2022-08-17T03:28:21.474Z,21.8
2022-08-17T03:29:23.908Z,21.8
2022-08-17T03:30:26.809Z,21.8
2022-08-17T03:31:30.015Z,21.8
2022-08-17T03:32:32.406Z,21.8
2022-08-17T03:33:35.526Z,21.8
2022-08-17T03:34:38.467Z,21.8
2022-08-17T03:35:41.484Z,21.8
2022-08-17T03:36:44.056Z,21.8
2022-08-17T03:37:46.669Z,21.8
2022-08-17T03:39:03.576Z,21.8
2022-08-17T03:40:06.837Z,21.8
2022-08-17T03:41:09.794Z,21.8
2022-08-17T03:42:33.205Z,21.8
2022-08-17T03:43:35.717Z,21.8
2022-08-17T03:44:38.747Z,21.8
2022-08-17T03:45:43.451Z,21.8
2022-08-17T03:46:46.087Z,21.8
2022-08-17T03:47:48.818Z,21.8
2022-08-17T03:48:52.212Z,21.8
2022-08-17T03:49:55.373Z,21.8
2022-08-17T03:50:57.991Z,21.8
2022-08-17T03:52:00.712Z,21.8
2022-08-17T03:53:03.614Z,21.8
2022-08-17T03:54:08.963Z,21.8
2022-08-17T03:55:11.970Z,21.8
2022-08-17T03:56:14.891Z,21.8
2022-08-17T03:57:17.808Z,21.8
2022-08-17T03:58:21.465Z,21.8
2022-08-17T03:59:27.046Z,21.8
2022-08-17T04:00:30.826Z,21.8
2022-08-17T04:01:33.796Z,21.8
2022-08-17T04:02:37.134Z,21.8
2022-08-17T04:03:40.324Z,21.8
2022-08-17T04:04:43.620Z,21.7
2022-08-17T04:05:47.411Z,21.7
2022-08-17T04:06:50.574Z,21.7
2022-08-17T04:07:53.244Z,21.7
2022-08-17T04:08:56.469Z,21.7
2022-08-17T04:09:59.419Z,21.7
2022-08-17T04:11:02.427Z,21.7
2022-08-17T04:12:05.638Z,21.7
2022-08-17T04:13:08.181Z,21.7
2022-08-17T04:14:10.784Z,21.7
2022-08-17T04:15:13.442Z,21.7
2022-08-17T04:16:16.356Z,21.7
2022-08-17T04:17:20.583Z,21.7
2022-08-17T04:18:23.765Z,21.7
2022-08-17T04:19:26.688Z,21.7
2022-08-17T04:20:29.323Z,21.7
2022-08-17T04:21:32.785Z,21.7
2022-08-17T04:22:35.396Z,21.7
2022-08-17T04:23:38.456Z,21.7
2022-08-17T04:24:41.079Z,21.7
2022-08-17T04:25:43.766Z,21.7
2022-08-17T04:26:55.352Z,21.6
2022-08-17T04:27:58.000Z,21.7
2022-08-17T04:29:00.614Z,21.7
2022-08-17T04:30:03.473Z,21.6
2022-08-17T04:31:08.326Z,21.7
2022-08-17T04:32:11.254Z,21.7
2022-08-17T04:33:14.957Z,21.6
2022-08-17T04:34:20.610Z,21.7
2022-08-17T04:35:23.032Z,21.7
2022-08-17T04:36:25.591Z,21.7
2022-08-17T04:37:28.225Z,21.7
2022-08-17T04:38:30.791Z,21.7
2022-08-17T04:39:35.100Z,21.7
2022-08-17T04:40:38.219Z,21.7
2022-08-17T04:41:44.310Z,21.7
2022-08-17T04:42:47.381Z,21.7
2022-08-17T04:44:04.056Z,21.7
2022-08-17T04:45:06.690Z,21.7
2022-08-17T04:46:08.764Z,21.7
2022-08-17T04:47:13.631Z,21.7
2022-08-17T04:48:16.471Z,21.7
2022-08-17T04:49:18.815Z,21.7
2022-08-17T04:50:21.440Z,21.7
2022-08-17T04:51:24.081Z,21.8
2022-08-17T04:52:44.027Z,21.8
2022-08-17T04:53:55.665Z,21.8
2022-08-17T04:54:58.238Z,21.8
2022-08-17T04:56:00.585Z,21.8
2022-08-17T04:57:02.875Z,21.8
2022-08-17T04:58:05.214Z,21.8
2022-08-17T04:59:07.241Z,21.9
2022-08-17T05:00:10.085Z,21.9
2022-08-17T05:01:13.208Z,21.9
2022-08-17T05:02:16.090Z,21.9
2022-08-17T05:03:19.002Z,21.9
2022-08-17T05:04:35.794Z,21.9
2022-08-17T05:05:38.571Z,21.9
2022-08-17T05:06:41.965Z,21.9
2022-08-17T05:07:45.144Z,22
2022-08-17T05:08:48.401Z,22
2022-08-17T05:09:51.097Z,22
2022-08-17T05:10:53.237Z,22
2022-08-17T05:11:56.824Z,22.1
2022-08-17T05:13:00.029Z,22.1
2022-08-17T05:14:02.661Z,22.1
2022-08-17T05:15:05.574Z,22.1
2022-08-17T05:16:08.421Z,22.1
2022-08-17T05:17:12.493Z,22.2
2022-08-17T05:18:15.698Z,22.2
2022-08-17T05:19:18.891Z,22.3
2022-08-17T05:20:21.745Z,22.3
2022-08-17T05:21:24.179Z,22.3
2022-08-17T05:22:26.741Z,22.4
2022-08-17T05:23:43.550Z,22.4
2022-08-17T05:25:03.316Z,22.4
2022-08-17T05:26:27.203Z,22.5
2022-08-17T05:27:37.638Z,22.5
2022-08-17T05:28:47.692Z,22.6
2022-08-17T05:29:53.426Z,22.6
2022-08-17T05:30:55.504Z,22.7
2022-08-17T05:31:58.485Z,22.8
2022-08-17T05:33:01.120Z,22.8
2022-08-17T05:34:03.559Z,22.8
2022-08-17T05:35:06.409Z,22.9
2022-08-17T05:36:09.050Z,22.9
2022-08-17T05:37:46.903Z,23
2022-08-17T05:38:49.550Z,23
2022-08-17T05:39:52.658Z,23
2022-08-17T05:40:56.175Z,23
2022-08-17T05:41:58.524Z,23.1
2022-08-17T05:43:01.102Z,23.1
2022-08-17T05:44:06.291Z,23.2
2022-08-17T05:45:09.599Z,23.2
2022-08-17T05:46:12.238Z,23.3
2022-08-17T05:47:14.649Z,23.3
2022-08-17T05:48:17.493Z,23.4
2022-08-17T05:49:20.934Z,23.4
2022-08-17T05:50:30.454Z,23.4
2022-08-17T05:51:33.220Z,23.5
2022-08-17T05:52:35.855Z,23.6
2022-08-17T05:53:43.409Z,23.6
2022-08-17T05:54:46.594Z,23.7
2022-08-17T05:55:49.500Z,23.7
2022-08-17T05:56:52.291Z,23.8
2022-08-17T05:57:57.463Z,23.8
2022-08-17T05:59:03.495Z,23.9
2022-08-17T06:00:10.157Z,23.9
2022-08-17T06:01:15.748Z,24
2022-08-17T06:02:19.023Z,24
2022-08-17T06:03:21.961Z,24.1
2022-08-17T06:04:24.598Z,24.1
2022-08-17T06:05:27.178Z,24.2
2022-08-17T06:06:32.076Z,24.3
2022-08-17T06:07:35.049Z,24.3
2022-08-17T06:08:37.976Z,24.3
2022-08-17T06:09:40.277Z,24.4
2022-08-17T06:10:42.581Z,24.4
2022-08-17T06:11:45.408Z,24.5
2022-08-17T06:12:48.626Z,24.5
2022-08-17T06:13:52.387Z,24.5
2022-08-17T06:14:57.366Z,24.6
2022-08-17T06:16:00.335Z,24.6
2022-08-17T06:17:03.257Z,24.6
2022-08-17T06:18:06.109Z,24.7
2022-08-17T06:19:08.199Z,24.7
2022-08-17T06:20:10.840Z,24.8
2022-08-17T06:21:13.810Z,24.8
2022-08-17T06:22:16.662Z,24.8
2022-08-17T06:23:19.578Z,24.8
2022-08-17T06:24:21.662Z,24.9
2022-08-17T06:25:24.577Z,24.9
2022-08-17T06:26:43.747Z,25
2022-08-17T06:27:46.318Z,25
2022-08-17T06:28:55.687Z,25
2022-08-17T06:29:58.597Z,25.1
2022-08-17T06:31:01.928Z,25.1
2022-08-17T06:32:04.274Z,25.1
2022-08-17T06:33:07.452Z,25.2
2022-08-17T06:34:09.858Z,25.2
2022-08-17T06:35:12.980Z,25.3
2022-08-17T06:36:16.863Z,25.3
2022-08-17T06:37:21.166Z,25.3
2022-08-17T06:38:39.509Z,25.3
2022-08-17T06:39:43.236Z,25.4
2022-08-17T06:40:45.765Z,25.4
2022-08-17T06:41:48.609Z,25.5
2022-08-17T06:43:08.000Z,25.5
2022-08-17T06:44:51.712Z,25.6
2022-08-17T06:45:55.154Z,25.6
2022-08-17T06:46:58.345Z,25.7
2022-08-17T06:48:00.362Z,25.7
2022-08-17T06:49:03.058Z,25.8
2022-08-17T06:50:06.266Z,25.8
2022-08-17T06:51:09.181Z,25.8
2022-08-17T06:52:47.692Z,25.9
2022-08-17T06:53:50.446Z,25.9
2022-08-17T06:54:53.129Z,25.9
2022-08-17T06:55:56.321Z,26
2022-08-17T06:56:59.216Z,26
2022-08-17T06:58:17.109Z,26.1
2022-08-17T06:59:20.496Z,26.1
2022-08-17T07:00:23.611Z,26.1
2022-08-17T07:01:26.641Z,26.1
2022-08-17T07:02:53.516Z,26.1
2022-08-17T07:03:56.662Z,26.2
2022-08-17T07:04:58.810Z,26.2
2022-08-17T07:06:01.924Z,26.2
2022-08-17T07:07:05.412Z,26.2
2022-08-17T07:08:08.607Z,26.3
2022-08-17T07:09:11.120Z,26.3
2022-08-17T07:10:13.800Z,26.3
2022-08-17T07:11:16.685Z,26.3
2022-08-17T07:12:19.361Z,26.4
2022-08-17T07:13:21.948Z,26.4
2022-08-17T07:14:25.100Z,26.4
2022-08-17T07:15:27.207Z,26.4
2022-08-17T07:16:30.395Z,26.5
2022-08-17T07:17:48.822Z,26.5
2022-08-17T07:18:52.227Z,26.5
2022-08-17T07:19:57.330Z,26.6
2022-08-17T07:21:00.024Z,26.6
2022-08-17T07:22:02.871Z,26.6
2022-08-17T07:23:05.785Z,26.6
2022-08-17T07:24:08.711Z,26.6
2022-08-17T07:25:33.168Z,26.7
2022-08-17T07:26:35.596Z,26.7
2022-08-17T07:27:38.437Z,26.7
2022-08-17T07:28:40.828Z,26.7
2022-08-17T07:29:44.058Z,26.8
2022-08-17T07:30:48.263Z,26.8
2022-08-17T07:31:50.948Z,26.8
2022-08-17T07:32:53.593Z,26.9
2022-08-17T07:33:57.063Z,26.9
2022-08-17T07:35:00.256Z,26.9
2022-08-17T07:36:02.908Z,26.9
2022-08-17T07:37:06.412Z,27
2022-08-17T07:38:27.455Z,27
2022-08-17T07:39:30.015Z,27
2022-08-17T07:40:32.964Z,27.1
2022-08-17T07:41:59.829Z,27.1
2022-08-17T07:43:05.509Z,27.2
2022-08-17T07:44:08.077Z,27.2
2022-08-17T07:45:11.005Z,27.2
2022-08-17T07:46:14.141Z,27.3
2022-08-17T07:47:16.780Z,27.3
2022-08-17T07:48:19.718Z,27.3
2022-08-17T07:49:22.632Z,27.4
2022-08-17T07:50:26.812Z,27.4
2022-08-17T07:51:29.948Z,27.5
2022-08-17T07:52:52.837Z,27.5
2022-08-17T07:54:14.998Z,27.5
2022-08-17T07:55:18.393Z,27.6
2022-08-17T07:56:21.284Z,27.6
2022-08-17T07:57:30.703Z,27.6
2022-08-17T07:58:32.495Z,27.6
2022-08-17T07:59:36.090Z,27.7
2022-08-17T08:00:39.047Z,27.7
2022-08-17T08:01:44.277Z,27.7
2022-08-17T08:02:48.686Z,27.8
2022-08-17T08:03:53.830Z,27.8
2022-08-17T08:05:02.740Z,27.8
2022-08-17T08:06:12.402Z,27.8
2022-08-17T08:07:15.307Z,27.9
2022-08-17T08:08:18.497Z,27.9
2022-08-17T08:09:21.472Z,27.9
2022-08-17T08:10:24.044Z,28
2022-08-17T08:11:26.403Z,28
2022-08-17T08:12:34.766Z,28
2022-08-17T08:13:37.781Z,28.1
2022-08-17T08:14:40.913Z,28.1
2022-08-17T08:15:55.016Z,28.1
2022-08-17T08:16:57.042Z,28.1
2022-08-17T08:17:59.373Z,28.1
2022-08-17T08:19:02.290Z,28.2
2022-08-17T08:20:54.689Z,28.2
2022-08-17T08:21:57.481Z,28.2
2022-08-17T08:22:59.601Z,28.3
2022-08-17T08:24:02.216Z,28.3
2022-08-17T08:25:05.285Z,28.3
2022-08-17T08:26:09.399Z,28.4
2022-08-17T08:27:22.137Z,28.4
2022-08-17T08:28:24.281Z,28.5
2022-08-17T08:29:27.208Z,28.5
2022-08-17T08:30:34.058Z,28.6
2022-08-17T08:31:42.799Z,28.6
2022-08-17T08:32:46.683Z,28.6
2022-08-17T08:33:51.978Z,28.7
2022-08-17T08:35:04.157Z,28.7
2022-08-17T08:36:07.069Z,28.8
2022-08-17T08:37:35.694Z,28.8
2022-08-17T08:38:46.117Z,28.9
2022-08-17T08:39:49.770Z,28.9
2022-08-17T08:40:53.473Z,29
2022-08-17T08:41:56.206Z,29
2022-08-17T08:42:59.390Z,29
2022-08-17T08:44:02.307Z,29
2022-08-17T08:45:06.476Z,29.1
2022-08-17T08:46:09.382Z,29.1
2022-08-17T08:47:12.009Z,29.1
2022-08-17T08:49:00.200Z,29.2
2022-08-17T08:50:39.278Z,29.2
2022-08-17T08:51:42.947Z,29.3
2022-08-17T08:52:46.782Z,29.4
2022-08-17T08:53:50.048Z,29.4
2022-08-17T08:54:52.625Z,29.4
2022-08-17T08:55:55.535Z,29.4
2022-08-17T08:57:33.929Z,29.5
2022-08-17T08:58:43.493Z,29.6
2022-08-17T08:59:59.318Z,29.6
2022-08-17T09:01:02.075Z,29.6
2022-08-17T09:02:04.895Z,29.7
2022-08-17T09:03:07.814Z,29.8
2022-08-17T09:04:26.444Z,29.8
2022-08-17T09:05:28.953Z,29.8
2022-08-17T09:06:40.401Z,29.9
2022-08-17T09:07:43.840Z,29.9
2022-08-17T09:08:46.575Z,29.9
2022-08-17T09:09:48.929Z,29.9
2022-08-17T09:10:51.500Z,30
2022-08-17T09:12:04.834Z,30
2022-08-17T09:13:12.117Z,30
2022-08-17T09:14:29.766Z,30.1
2022-08-17T09:15:49.948Z,30.1
2022-08-17T09:16:53.149Z,30.1
2022-08-17T09:19:04.887Z,30.2
2022-08-17T09:20:09.860Z,30.2
2022-08-17T09:21:34.606Z,30.4
2022-08-17T09:22:37.898Z,30.4
2022-08-17T09:23:41.240Z,30.5
2022-08-17T09:24:43.404Z,30.5
2022-08-17T09:25:46.046Z,30.6
2022-08-17T09:26:48.673Z,30.7
2022-08-17T09:27:52.782Z,30.7
2022-08-17T09:28:56.210Z,30.8
2022-08-17T09:29:59.184Z,30.9
2022-08-17T09:31:02.473Z,30.9
2022-08-17T09:32:04.675Z,31
2022-08-17T09:33:07.591Z,31.1
2022-08-17T09:34:10.662Z,31.1
2022-08-17T09:35:13.358Z,31.1
2022-08-17T09:36:16.221Z,31.2
2022-08-17T09:37:19.416Z,31.2
2022-08-17T09:38:22.352Z,31.3
2022-08-17T09:39:25.096Z,31.4
2022-08-17T09:40:28.504Z,31.4
2022-08-17T09:41:30.857Z,31.4
2022-08-17T09:42:33.493Z,31.5
2022-08-17T09:43:36.333Z,31.6
2022-08-17T09:44:39.736Z,31.6
2022-08-17T09:45:42.301Z,31.7
2022-08-17T09:46:45.598Z,31.8
2022-08-17T09:47:48.673Z,31.8
2022-08-17T09:51:51.636Z,32
2022-08-17T09:52:54.689Z,32.1
2022-08-17T09:54:40.252Z,32.1
2022-08-17T09:55:46.458Z,32.1
2022-08-17T09:57:31.302Z,32.2
2022-08-17T09:58:34.952Z,32.2
2022-08-17T09:59:42.053Z,32.3
2022-08-17T10:00:46.904Z,32.3
2022-08-17T10:01:50.010Z,32.3
2022-08-17T10:02:52.781Z,32.3
2022-08-17T10:03:55.976Z,32.4
2022-08-17T10:04:58.607Z,32.4
2022-08-17T10:06:01.024Z,32.4
2022-08-17T10:07:08.336Z,32.4
2022-08-17T10:08:11.837Z,32.4
2022-08-17T10:09:14.349Z,32.4
2022-08-17T10:10:17.691Z,32.4
2022-08-17T10:11:34.559Z,32.5
2022-08-17T10:12:53.978Z,32.5
2022-08-17T10:14:00.027Z,32.5
2022-08-17T10:15:10.430Z,32.6
2022-08-17T10:16:13.667Z,32.6
2022-08-17T10:17:16.106Z,32.6
2022-08-17T10:18:19.114Z,32.6
2022-08-17T10:19:21.878Z,32.7
2022-08-17T10:20:24.935Z,32.7
2022-08-17T10:21:27.517Z,32.8
2022-08-17T10:22:38.447Z,32.9
2022-08-17T10:23:43.232Z,32.9
2022-08-17T10:25:33.415Z,33
2022-08-17T10:26:58.740Z,33.1
2022-08-17T10:28:01.928Z,33.1
2022-08-17T10:29:04.756Z,33.1
2022-08-17T10:30:07.628Z,33.1
2022-08-17T10:31:44.302Z,33.1
2022-08-17T10:32:47.459Z,33.1
2022-08-17T10:33:50.731Z,33.1
2022-08-17T10:34:53.606Z,33.1
2022-08-17T10:35:58.341Z,33.2
2022-08-17T10:37:00.641Z,33.2
2022-08-17T10:38:03.665Z,33.3
2022-08-17T10:39:07.228Z,33.3
2022-08-17T10:40:10.639Z,33.4
2022-08-17T10:41:14.130Z,33.4
2022-08-17T10:42:33.880Z,33.5
2022-08-17T10:43:36.927Z,33.5
2022-08-17T10:44:42.274Z,33.5
2022-08-17T10:45:48.047Z,33.5
2022-08-17T10:48:02.756Z,33.5
2022-08-17T10:49:11.461Z,33.5
2022-08-17T10:50:14.883Z,33.5
2022-08-17T10:51:17.970Z,33.6
2022-08-17T10:52:21.334Z,33.6
2022-08-17T10:53:27.325Z,33.6
2022-08-17T10:54:30.502Z,33.7
2022-08-17T10:55:32.937Z,33.7
2022-08-17T10:56:36.717Z,33.7
2022-08-17T10:57:40.052Z,33.8
2022-08-17T10:58:42.811Z,33.9
2022-08-17T10:59:45.678Z,33.9
2022-08-17T11:00:49.125Z,34
2022-08-17T11:01:54.610Z,34
2022-08-17T11:02:58.241Z,34.1
2022-08-17T11:04:04.625Z,34.1
2022-08-17T11:05:08.346Z,34.2
2022-08-17T11:06:11.525Z,34.3
2022-08-17T11:07:14.881Z,34.3
2022-08-17T11:08:20.184Z,34.3
2022-08-17T11:09:25.949Z,34.4
2022-08-17T11:10:29.297Z,34.5
2022-08-17T11:11:32.050Z,34.6
2022-08-17T11:12:36.040Z,34.6
2022-08-17T11:13:38.845Z,34.7
2022-08-17T11:14:42.528Z,34.8
2022-08-17T11:15:45.085Z,34.9
2022-08-17T11:16:48.344Z,35
2022-08-17T11:17:50.638Z,35.1
2022-08-17T11:18:53.823Z,35.2
2022-08-17T11:19:57.036Z,35.3
2022-08-17T11:20:59.607Z,35.4
2022-08-17T11:22:02.820Z,35.5
2022-08-17T11:23:05.446Z,35.6
2022-08-17T11:24:08.370Z,35.7
2022-08-17T11:25:11.277Z,35.8
2022-08-17T11:26:13.924Z,35.8
2022-08-17T11:27:16.166Z,35.8
2022-08-17T11:28:18.860Z,35.9
2022-08-17T11:29:25.584Z,35.8
2022-08-17T11:30:32.835Z,35.8
2022-08-17T11:31:40.564Z,36
2022-08-17T11:32:55.247Z,35.8
2022-08-17T11:33:59.313Z,35.9
2022-08-17T11:35:01.893Z,36
2022-08-17T11:36:04.618Z,36.1
2022-08-17T11:37:06.907Z,36
2022-08-17T11:38:17.099Z,36
2022-08-17T11:39:19.993Z,36.2
2022-08-17T11:40:23.190Z,36.1
2022-08-17T11:41:26.085Z,36.1
2022-08-17T11:42:29.306Z,36.2
2022-08-17T11:43:32.160Z,36.3
2022-08-17T11:44:34.849Z,36.4
2022-08-17T11:45:37.417Z,36.4
2022-08-17T11:46:51.746Z,36.5
2022-08-17T11:48:29.363Z,36.5
2022-08-17T11:49:34.595Z,36.6
2022-08-17T11:50:37.737Z,36.7
2022-08-17T11:51:40.087Z,36.7
2022-08-17T11:52:47.329Z,36.8
2022-08-17T11:53:49.961Z,36.8
2022-08-17T11:54:52.818Z,36.9
2022-08-17T11:55:55.669Z,36.9
2022-08-17T11:56:58.524Z,36.9
2022-08-17T11:58:01.232Z,37.1
2022-08-17T11:59:04.098Z,37
2022-08-17T12:00:07.086Z,37.1
2022-08-17T12:01:16.400Z,37.2
2022-08-17T12:02:19.667Z,37.3
2022-08-17T12:03:23.154Z,37.4
2022-08-17T12:04:26.797Z,37.4
2022-08-17T12:05:29.923Z,37.5
2022-08-17T12:06:32.766Z,37.5
2022-08-17T12:07:35.789Z,37.6
2022-08-17T12:08:41.915Z,37.7
2022-08-17T12:09:44.268Z,37.7
2022-08-17T12:10:47.787Z,37.8
2022-08-17T12:12:14.972Z,37.8
2022-08-17T12:13:18.587Z,37.9
2022-08-17T12:15:10.402Z,37.9
2022-08-17T12:16:15.376Z,37.9
2022-08-17T12:17:43.565Z,37.9
2022-08-17T12:18:46.677Z,37.9
2022-08-17T12:19:49.317Z,37.9
2022-08-17T12:20:57.442Z,37.9
2022-08-17T12:22:00.035Z,37.9
2022-08-17T12:23:02.890Z,37.9
2022-08-17T12:24:05.538Z,37.9
2022-08-17T12:25:08.304Z,37.8
2022-08-17T12:26:10.938Z,37.8
2022-08-17T12:27:13.966Z,37.7
2022-08-17T12:28:21.699Z,37.7
2022-08-17T12:29:39.818Z,37.7
2022-08-17T12:30:43.227Z,37.6
2022-08-17T12:31:45.882Z,37.6
2022-08-17T12:32:48.300Z,37.6
2022-08-17T12:33:50.603Z,37.6
2022-08-17T12:34:53.519Z,37.5
2022-08-17T12:36:00.359Z,37.5
2022-08-17T12:37:04.346Z,37.5
2022-08-17T12:38:34.195Z,37.5
2022-08-17T12:39:37.957Z,37.5
2022-08-17T12:40:41.932Z,37.5
2022-08-17T12:41:45.124Z,37.6
2022-08-17T12:42:48.317Z,37.6
2022-08-17T12:43:50.899Z,37.7
2022-08-17T12:44:53.599Z,37.7
2022-08-17T12:45:56.229Z,37.7
2022-08-17T12:46:59.136Z,37.7
2022-08-17T12:48:02.609Z,37.8
2022-08-17T12:49:05.405Z,37.9
2022-08-17T12:50:30.304Z,37.9
2022-08-17T12:51:33.739Z,38
2022-08-17T12:52:36.432Z,38.1
2022-08-17T12:53:39.048Z,38.1
2022-08-17T12:54:41.967Z,38.1
2022-08-17T12:55:44.886Z,38.2
2022-08-17T12:56:48.580Z,38.2
2022-08-17T12:57:51.998Z,38.2
2022-08-17T12:58:55.213Z,38.3
2022-08-17T12:59:58.963Z,38.3
2022-08-17T13:01:01.537Z,38.4
2022-08-17T13:02:04.926Z,38.4
2022-08-17T13:03:07.739Z,38.4
2022-08-17T13:04:14.849Z,38.4
2022-08-17T13:05:17.553Z,38.4
2022-08-17T13:06:19.845Z,38.5
2022-08-17T13:07:22.212Z,38.5
2022-08-17T13:08:24.910Z,38.6
2022-08-17T13:09:41.591Z,38.7
2022-08-17T13:10:44.788Z,38.7
2022-08-17T13:11:54.153Z,38.8
2022-08-17T13:12:57.419Z,38.8
2022-08-17T13:13:59.712Z,38.8
2022-08-17T13:15:02.574Z,38.9
2022-08-17T13:16:05.277Z,38.9
2022-08-17T13:17:14.338Z,38.9
2022-08-17T13:18:17.262Z,38.9
2022-08-17T13:19:42.107Z,39
2022-08-17T13:20:44.702Z,39
2022-08-17T13:21:47.610Z,39
2022-08-17T13:22:50.797Z,39
2022-08-17T13:23:54.244Z,39.1
2022-08-17T13:24:57.375Z,39.1
2022-08-17T13:26:00.232Z,39.1
2022-08-17T13:27:09.326Z,39.1
2022-08-17T13:28:11.703Z,39.2
2022-08-17T13:29:14.333Z,39.2
2022-08-17T13:30:16.968Z,39.3
2022-08-17T13:31:19.941Z,39.4
2022-08-17T13:32:23.202Z,39.4
2022-08-17T13:33:45.867Z,39.4
2022-08-17T13:35:38.890Z,39.3
2022-08-17T13:36:52.462Z,39.2
2022-08-17T13:37:56.433Z,39
2022-08-17T13:38:59.399Z,38.9
2022-08-17T13:40:02.454Z,38.9
2022-08-17T13:41:06.326Z,38.8
2022-08-17T13:42:17.979Z,38.7
2022-08-17T13:43:25.771Z,38.6
2022-08-17T13:44:28.418Z,38.5
2022-08-17T13:45:39.881Z,38.4
2022-08-17T13:46:57.943Z,38.3
2022-08-17T13:48:01.360Z,38.2
2022-08-17T13:49:03.998Z,38.1
2022-08-17T13:50:06.634Z,37.9
2022-08-17T13:51:09.545Z,37.8
2022-08-17T13:52:17.425Z,37.7
2022-08-17T13:53:33.696Z,37.6
2022-08-17T13:54:37.200Z,37.5
2022-08-17T13:55:39.846Z,37.4
2022-08-17T13:56:43.320Z,37.4
2022-08-17T13:57:46.319Z,37.4
2022-08-17T13:58:49.503Z,37.4
2022-08-17T13:59:56.479Z,37.5
2022-08-17T14:00:59.185Z,37.5
2022-08-17T14:02:01.974Z,37.6
2022-08-17T14:03:05.070Z,37.6
2022-08-17T14:04:07.770Z,37.7
2022-08-17T14:05:11.358Z,37.8
2022-08-17T14:06:54.639Z,37.9
2022-08-17T14:07:57.199Z,38
2022-08-17T14:08:59.373Z,38.1
2022-08-17T14:10:02.476Z,38.2
2022-08-17T14:11:05.421Z,38.3
2022-08-17T14:12:08.424Z,38.3
2022-08-17T14:13:10.843Z,38.4
2022-08-17T14:14:13.772Z,38.5
2022-08-17T14:15:16.393Z,38.5
2022-08-17T14:16:19.290Z,38.5
2022-08-17T14:17:21.938Z,38.6
2022-08-17T14:18:58.004Z,38.6
2022-08-17T14:19:59.738Z,38.6
2022-08-17T14:21:02.609Z,38.6
2022-08-17T14:22:05.887Z,38.6
2022-08-17T14:23:08.792Z,38.6
2022-08-17T14:24:11.211Z,38.6
2022-08-17T14:25:14.327Z,38.6
2022-08-17T14:26:17.310Z,38.6
2022-08-17T14:27:20.158Z,38.4
2022-08-17T14:28:22.744Z,38.4
2022-08-17T14:29:29.812Z,38.3
2022-08-17T14:30:32.979Z,38.2
2022-08-17T14:31:38.617Z,38.1
2022-08-17T14:32:41.195Z,37.9
2022-08-17T14:33:43.836Z,37.9
2022-08-17T14:34:47.291Z,37.7
2022-08-17T14:35:50.487Z,37.6
2022-08-17T14:36:53.404Z,37.6
2022-08-17T14:37:56.611Z,37.5
2022-08-17T14:38:58.902Z,37.5
2022-08-17T14:40:02.088Z,37.5
2022-08-17T14:41:05.336Z,37.5
2022-08-17T14:42:08.028Z,37.5
2022-08-17T14:43:10.056Z,37.4
2022-08-17T14:44:12.426Z,37.4
2022-08-17T14:45:33.838Z,37.5
2022-08-17T14:46:36.967Z,37.5
2022-08-17T14:47:39.818Z,37.4
2022-08-17T14:48:42.663Z,37.4